Time;durP1;ratioP1;P1;durP2;ratioP2;P2;SDS_P1;SDS_P2;PMS_P1;PMS_P2;Temp;Humidity;BMP_temperature;BMP_pressure;BME280_temperature;BME280_humidity;BME280_pressure;Samples;Min_cycle;Max_cycle;Signal;HPM_P1;HPM_P2
2024/01/12 00:02:09;;;;;;;59.53;31.20;;;0.90;99.90;;;;;;4951490;28;20277;-63
2024/01/12 00:04:36;;;;;;;59.97;29.93;;;0.90;99.90;;;;;;4960291;28;20280;-64
2024/01/12 00:07:03;;;;;;;55.07;29.63;;;0.80;99.90;;;;;;4960849;28;20205;-65
2024/01/12 00:09:30;;;;;;;53.57;26.07;;;0.90;99.90;;;;;;4972380;28;20639;-64
2024/01/12 00:11:57;;;;;;;47.27;27.23;;;0.90;99.90;;;;;;4975707;28;20630;-64
2024/01/12 00:14:25;;;;;;;50.10;27.60;;;0.90;99.90;;;;;;4980132;28;20214;-64
2024/01/12 00:16:52;;;;;;;45.53;26.70;;;0.90;99.90;;;;;;4967621;28;20964;-65
2024/01/12 00:19:19;;;;;;;46.20;27.13;;;0.90;99.90;;;;;;4953326;28;20290;-65
2024/01/12 00:21:47;;;;;;;48.77;26.43;;;1.00;99.90;;;;;;4954181;28;20214;-65
2024/01/12 00:24:14;;;;;;;44.83;25.73;;;1.00;99.90;;;;;;4959886;28;20214;-64
2024/01/12 00:26:41;;;;;;;47.17;25.07;;;1.00;99.90;;;;;;4962022;28;20199;-65
2024/01/12 00:29:09;;;;;;;45.67;25.17;;;1.00;99.90;;;;;;4974510;28;20726;-64
2024/01/12 00:31:36;;;;;;;38.80;24.77;;;1.00;99.90;;;;;;4977110;28;20213;-63
2024/01/12 00:34:03;;;;;;;47.40;26.97;;;1.00;99.90;;;;;;4961720;28;20681;-65
2024/01/12 00:36:30;;;;;;;46.33;26.93;;;1.00;99.90;;;;;;4956642;28;20201;-65
2024/01/12 00:38:57;;;;;;;45.13;25.33;;;1.00;99.90;;;;;;4969766;28;20229;-64
2024/01/12 00:41:24;;;;;;;45.70;24.90;;;1.00;99.90;;;;;;4975186;28;20237;-64
2024/01/12 00:43:51;;;;;;;42.63;24.13;;;1.00;99.90;;;;;;4961975;28;20205;-64
2024/01/12 00:46:18;;;;;;;50.83;26.73;;;1.00;99.90;;;;;;4976607;28;20213;-64
2024/01/12 00:48:45;;;;;;;36.13;24.43;;;1.00;99.90;;;;;;4969253;28;20197;-63
2024/01/12 00:51:12;;;;;;;41.87;24.33;;;1.00;99.90;;;;;;4964131;28;20576;-64
2024/01/12 00:53:43;;;;;;;48.13;25.60;;;0.90;99.90;;;;;;4977411;28;20721;-64
2024/01/12 00:56:10;;;;;;;44.67;25.83;;;0.90;99.90;;;;;;4964331;28;20197;-64
2024/01/12 00:58:37;;;;;;;56.40;32.47;;;0.90;99.90;;;;;;4964243;28;20249;-64
2024/01/12 01:01:04;;;;;;;48.40;26.83;;;0.90;99.90;;;;;;4967168;28;20210;-64
2024/01/12 01:03:31;;;;;;;47.50;25.80;;;0.90;99.90;;;;;;4973993;28;20210;-65
2024/01/12 01:05:58;;;;;;;48.90;26.67;;;1.00;99.90;;;;;;4977401;28;20208;-65
2024/01/12 01:08:25;;;;;;;54.53;31.47;;;0.90;99.90;;;;;;4976212;28;20187;-64
2024/01/12 01:10:52;;;;;;;45.80;28.03;;;1.00;99.90;;;;;;4957173;28;20645;-63
2024/01/12 01:13:19;;;;;;;44.33;26.20;;;1.00;99.90;;;;;;4957172;28;20360;-65
2024/01/12 01:15:47;;;;;;;51.33;28.43;;;1.00;99.90;;;;;;4945589;28;20208;-59
2024/01/12 01:18:15;;;;;;;49.87;27.67;;;1.00;99.90;;;;;;4964711;28;20194;-59
2024/01/12 01:20:42;;;;;;;49.17;26.63;;;0.90;99.90;;;;;;4984256;28;20706;-59
2024/01/12 01:23:09;;;;;;;44.23;26.70;;;0.70;99.90;;;;;;4954119;28;20293;-59
2024/01/12 01:25:37;;;;;;;42.57;26.33;;;0.70;99.90;;;;;;4981831;28;20276;-59
2024/01/12 01:28:04;;;;;;;43.53;25.87;;;0.80;99.90;;;;;;4980086;28;20202;-59
2024/01/12 01:30:31;;;;;;;47.97;26.73;;;0.80;99.90;;;;;;4977163;28;20783;-64
2024/01/12 01:32:58;;;;;;;51.30;25.83;;;0.90;99.90;;;;;;4959735;28;20205;-64
2024/01/12 01:35:25;;;;;;;45.57;26.00;;;0.90;99.90;;;;;;4960306;28;20491;-63
2024/01/12 01:37:52;;;;;;;46.87;26.93;;;0.80;99.90;;;;;;4976247;28;20495;-63
2024/01/12 01:40:19;;;;;;;50.40;26.37;;;0.90;99.90;;;;;;4953238;28;20233;-64
2024/01/12 01:42:48;;;;;;;49.10;25.67;;;0.90;99.90;;;;;;4977636;28;20194;-64
2024/01/12 01:45:15;;;;;;;44.33;24.10;;;0.90;99.90;;;;;;4956699;28;20264;-65
2024/01/12 01:47:46;;;;;;;59.60;28.93;;;0.90;99.90;;;;;;4972587;28;20206;-64
2024/01/12 01:50:15;;;;;;;42.50;26.13;;;0.90;99.90;;;;;;4979198;28;20277;-65
2024/01/12 01:52:45;;;;;;;42.77;25.70;;;0.90;99.90;;;;;;4973250;28;20194;-65
2024/01/12 01:55:15;;;;;;;47.60;26.10;;;0.90;99.90;;;;;;4966750;28;20300;-64
2024/01/12 01:57:42;;;;;;;45.10;25.63;;;1.00;99.90;;;;;;4966604;28;20197;-64
2024/01/12 02:00:11;;;;;;;46.03;26.33;;;1.00;99.90;;;;;;4984711;28;20186;-64
2024/01/12 02:02:40;;;;;;;50.57;25.80;;;1.00;99.90;;;;;;4962256;28;20265;-64
2024/01/12 02:05:10;;;;;;;49.23;25.50;;;1.00;99.90;;;;;;4973745;28;20194;-64
2024/01/12 02:07:37;;;;;;;43.27;26.07;;;1.00;99.90;;;;;;4962310;28;20524;-63
2024/01/12 02:10:06;;;;;;;43.10;24.43;;;1.00;99.90;;;;;;4954695;28;20222;-64
2024/01/12 02:12:37;;;;;;;50.53;27.33;;;1.00;99.90;;;;;;4975626;28;20606;-63
2024/01/12 02:15:07;;;;;;;49.50;25.70;;;1.00;99.90;;;;;;4974412;28;20200;-64
2024/01/12 02:17:35;;;;;;;48.00;25.53;;;0.90;99.90;;;;;;4960817;28;20337;-65
2024/01/12 02:20:02;;;;;;;42.83;26.30;;;1.00;99.90;;;;;;4957501;28;20293;-65
2024/01/12 02:22:30;;;;;;;50.83;26.17;;;1.00;99.90;;;;;;4955087;28;20225;-65
2024/01/12 02:24:57;;;;;;;46.60;26.20;;;1.00;99.90;;;;;;4979421;28;20221;-65
2024/01/12 02:27:24;;;;;;;44.90;25.97;;;1.00;99.90;;;;;;4955705;28;20186;-65
2024/01/12 02:29:52;;;;;;;41.73;25.87;;;1.10;99.90;;;;;;4968536;28;20209;-66
2024/01/12 02:32:19;;;;;;;46.03;25.20;;;1.10;99.90;;;;;;4952562;28;20199;-66
2024/01/12 02:34:46;;;;;;;38.17;24.30;;;1.00;99.90;;;;;;4941969;28;20194;-64
2024/01/12 02:37:13;;;;;;;42.10;25.77;;;1.10;99.90;;;;;;4953995;28;20207;-64
2024/01/12 02:39:40;;;;;;;40.37;25.80;;;1.10;99.90;;;;;;4977549;28;20193;-65
2024/01/12 02:42:07;;;;;;;40.80;24.67;;;1.10;99.90;;;;;;4959917;28;20301;-58
2024/01/12 02:44:34;;;;;;;44.07;25.00;;;1.10;99.90;;;;;;4942858;28;20720;-60
2024/01/12 02:47:01;;;;;;;36.13;25.37;;;1.10;99.90;;;;;;4973289;28;20225;-59
2024/01/12 02:49:28;;;;;;;38.77;24.77;;;1.00;99.90;;;;;;4960886;28;20202;-59
2024/01/12 02:51:55;;;;;;;37.60;24.40;;;1.10;99.90;;;;;;4936649;28;20210;-59
2024/01/12 02:54:22;;;;;;;37.40;24.50;;;1.10;99.90;;;;;;4951351;28;20533;-59
2024/01/12 02:56:49;;;;;;;36.20;24.13;;;1.00;99.90;;;;;;4952466;28;20794;-59
2024/01/12 02:59:16;;;;;;;39.00;25.50;;;1.00;99.90;;;;;;4956185;28;20198;-59
2024/01/12 03:05:43;;;;;;;39.20;24.63;;;1.00;99.90;;;;;;4976588;28;20197;-60
2024/01/12 03:08:10;;;;;;;44.40;25.23;;;1.10;99.90;;;;;;4953430;28;20209;-60
2024/01/12 03:10:37;;;;;;;46.20;26.27;;;1.10;99.90;;;;;;4952102;28;20234;-59
2024/01/12 03:13:04;;;;;;;40.97;24.97;;;1.10;99.90;;;;;;4959110;28;20221;-59
2024/01/12 03:15:31;;;;;;;40.77;24.93;;;1.10;99.90;;;;;;4972412;28;20204;-59
2024/01/12 03:17:59;;;;;;;45.87;26.47;;;1.10;99.90;;;;;;4956544;28;20195;-59
2024/01/12 03:20:26;;;;;;;44.33;25.60;;;1.10;99.90;;;;;;4971163;28;20645;-59
2024/01/12 03:22:53;;;;;;;44.53;27.20;;;1.10;99.90;;;;;;4957336;28;20241;-60
2024/01/12 03:25:20;;;;;;;41.77;26.33;;;1.10;99.90;;;;;;4953755;28;20189;-59
2024/01/12 03:27:47;;;;;;;45.90;27.20;;;1.10;99.90;;;;;;4971923;28;20226;-61
2024/01/12 03:30:14;;;;;;;38.50;26.43;;;1.20;99.90;;;;;;4983125;28;20546;-59
2024/01/12 03:32:43;;;;;;;41.03;26.10;;;1.10;99.90;;;;;;4957932;28;20622;-59
2024/01/12 03:35:10;;;;;;;45.73;26.87;;;1.20;99.90;;;;;;4953711;28;20195;-60
2024/01/12 03:37:37;;;;;;;39.80;26.37;;;1.20;99.90;;;;;;4959142;28;20197;-60
2024/01/12 03:40:04;;;;;;;75.83;35.43;;;1.20;99.90;;;;;;4983650;28;20295;-58
2024/01/12 03:42:31;;;;;;;71.67;35.83;;;1.20;99.90;;;;;;4944653;28;20215;-59
2024/01/12 03:44:58;;;;;;;44.17;26.87;;;1.10;99.90;;;;;;4969652;28;20253;-58
2024/01/12 03:47:25;;;;;;;38.43;25.90;;;1.20;99.90;;;;;;4972842;28;20202;-57
2024/01/12 03:49:52;;;;;;;43.17;27.67;;;1.20;99.90;;;;;;4967365;28;20213;-58
2024/01/12 03:52:19;;;;;;;40.77;27.43;;;1.10;99.90;;;;;;4971624;28;20191;-59
2024/01/12 03:54:46;;;;;;;47.37;26.67;;;1.20;99.90;;;;;;4978761;28;20565;-59
2024/01/12 03:57:13;;;;;;;44.60;27.40;;;1.20;99.90;;;;;;4974814;28;20204;-57
2024/01/12 03:59:40;;;;;;;49.17;27.77;;;1.20;99.90;;;;;;4979077;28;20801;-59
2024/01/12 04:02:07;;;;;;;46.33;26.87;;;1.10;99.90;;;;;;4950513;28;20222;-59
2024/01/12 04:04:34;;;;;;;44.83;26.90;;;1.10;99.90;;;;;;4971945;28;20248;-58
2024/01/12 04:07:01;;;;;;;42.90;26.30;;;1.10;99.90;;;;;;4959205;28;20528;-59
2024/01/12 04:09:28;;;;;;;46.17;27.93;;;1.10;99.90;;;;;;4974351;28;20222;-58
2024/01/12 04:11:55;;;;;;;44.73;26.60;;;1.10;99.90;;;;;;4955834;28;20716;-57
2024/01/12 04:14:22;;;;;;;59.20;30.37;;;1.10;99.90;;;;;;4951126;28;20521;-58
2024/01/12 04:16:49;;;;;;;109.63;43.40;;;1.20;99.90;;;;;;4975073;28;20201;-57
2024/01/12 04:19:16;;;;;;;63.00;32.20;;;1.20;99.90;;;;;;4952355;28;20360;-58
2024/01/12 04:21:43;;;;;;;48.43;28.83;;;1.20;99.90;;;;;;4974645;28;20334;-58
2024/01/12 04:24:10;;;;;;;43.50;26.03;;;1.20;99.90;;;;;;4970312;28;20185;-58
2024/01/12 04:26:37;;;;;;;49.47;26.47;;;1.20;99.90;;;;;;4974083;28;20198;-59
2024/01/12 04:29:04;;;;;;;50.77;27.53;;;1.20;99.90;;;;;;4970066;28;20194;-58
2024/01/12 04:31:31;;;;;;;55.20;30.87;;;1.10;99.90;;;;;;4957531;28;20677;-58
2024/01/12 04:33:58;;;;;;;56.87;31.23;;;1.10;99.90;;;;;;4968364;28;20224;-59
2024/01/12 04:36:26;;;;;;;49.07;30.33;;;1.10;99.90;;;;;;4962349;28;20688;-58
2024/01/12 04:38:53;;;;;;;58.77;32.87;;;1.10;99.90;;;;;;4973349;28;20273;-58
2024/01/12 04:41:20;;;;;;;49.13;29.27;;;1.10;99.90;;;;;;4978274;28;20245;-59
2024/01/12 04:43:50;;;;;;;47.47;28.33;;;1.10;99.90;;;;;;4976082;28;20213;-59
2024/01/12 04:46:17;;;;;;;43.83;27.40;;;1.10;99.90;;;;;;4970347;28;20257;-59
2024/01/12 04:48:44;;;;;;;50.77;28.17;;;1.10;99.90;;;;;;4953121;28;20212;-59
2024/01/12 04:51:11;;;;;;;55.63;28.60;;;1.00;99.90;;;;;;4961641;28;20213;-58
2024/01/12 04:53:38;;;;;;;45.13;26.53;;;1.00;99.90;;;;;;4973483;28;20286;-60
2024/01/12 04:56:05;;;;;;;44.10;28.67;;;1.10;99.90;;;;;;4961796;28;20244;-59
2024/01/12 04:58:32;;;;;;;42.27;26.23;;;1.10;99.90;;;;;;4978886;28;20269;-60
2024/01/12 05:00:59;;;;;;;58.60;35.37;;;1.10;99.90;;;;;;4971002;28;20280;-65
2024/01/12 05:03:26;;;;;;;56.60;30.10;;;1.10;99.90;;;;;;4960067;28;20673;-64
2024/01/12 05:05:53;;;;;;;62.70;35.20;;;1.10;99.90;;;;;;4951371;28;20202;-65
2024/01/12 05:08:20;;;;;;;56.13;30.90;;;1.00;99.90;;;;;;4961574;28;20201;-65
2024/01/12 05:10:47;;;;;;;47.37;28.00;;;0.90;99.90;;;;;;4971306;28;20202;-65
2024/01/12 05:13:15;;;;;;;46.37;27.63;;;1.00;99.90;;;;;;4971620;28;20256;-65
2024/01/12 05:15:42;;;;;;;48.67;30.20;;;1.00;99.90;;;;;;4973674;28;20202;-65
2024/01/12 05:18:09;;;;;;;59.53;31.77;;;1.10;99.90;;;;;;4977641;28;20233;-65
2024/01/12 05:20:39;;;;;;;45.27;28.87;;;1.20;99.90;;;;;;4954188;28;20736;-64
2024/01/12 05:23:06;;;;;;;46.03;26.67;;;1.20;99.90;;;;;;4970822;28;20253;-67
2024/01/12 05:25:34;;;;;;;45.40;27.40;;;1.20;99.90;;;;;;4963063;28;20213;-66
2024/01/12 05:28:01;;;;;;;43.77;27.23;;;1.30;99.90;;;;;;4971961;28;20191;-67
2024/01/12 05:30:28;;;;;;;49.70;28.23;;;1.30;99.90;;;;;;4959108;28;20696;-66
2024/01/12 05:32:55;;;;;;;50.73;27.70;;;1.30;99.90;;;;;;4976100;28;20277;-66
2024/01/12 05:35:22;;;;;;;50.33;30.03;;;1.30;99.90;;;;;;4979081;28;20574;-67
2024/01/12 05:37:49;;;;;;;55.87;30.07;;;1.30;99.90;;;;;;4973206;28;20205;-67
2024/01/12 05:40:16;;;;;;;53.10;28.13;;;1.30;99.90;;;;;;4963899;28;20206;-67
2024/01/12 05:42:43;;;;;;;48.40;28.40;;;1.30;99.90;;;;;;4959130;28;20238;-67
2024/01/12 05:45:10;;;;;;;55.27;27.07;;;1.30;99.90;;;;;;4974609;28;20201;-66
2024/01/12 05:47:37;;;;;;;48.57;28.50;;;1.30;99.90;;;;;;4979144;28;20205;-64
2024/01/12 05:50:06;;;;;;;45.20;27.93;;;1.30;99.90;;;;;;4979202;28;20194;-67
2024/01/12 05:52:34;;;;;;;47.53;30.17;;;1.10;99.90;;;;;;4978216;28;20674;-66
2024/01/12 05:55:01;;;;;;;40.60;26.77;;;1.10;99.90;;;;;;4960450;28;20205;-67
2024/01/12 05:57:30;;;;;;;47.73;27.80;;;1.00;99.90;;;;;;4960849;28;20216;-65
2024/01/12 05:59:57;;;;;;;40.47;26.10;;;1.00;99.90;;;;;;4961010;28;20268;-66
2024/01/12 06:02:24;;;;;;;48.03;28.07;;;0.90;99.90;;;;;;4971576;28;20270;-67
2024/01/12 06:04:51;;;;;;;48.13;28.97;;;0.90;99.90;;;;;;4957595;28;20294;-66
2024/01/12 06:07:18;;;;;;;42.53;27.70;;;0.90;99.90;;;;;;4973427;28;20499;-66
2024/01/12 06:09:44;;;;;;;54.17;27.63;;;0.90;99.90;;;;;;4960458;28;20742;-67
2024/01/12 06:12:11;;;;;;;46.90;27.53;;;0.90;99.90;;;;;;4965340;28;20296;-66
2024/01/12 06:14:39;;;;;;;48.07;27.17;;;0.80;99.90;;;;;;4984239;28;20189;-67
2024/01/12 06:17:06;;;;;;;50.47;26.83;;;0.90;99.90;;;;;;4984830;28;20190;-69
2024/01/12 06:19:33;;;;;;;62.83;35.77;;;0.80;99.90;;;;;;4979937;28;20204;-66
2024/01/12 06:22:00;;;;;;;45.07;26.63;;;0.90;99.90;;;;;;4957948;28;20784;-67
2024/01/12 06:24:27;;;;;;;51.13;27.80;;;1.00;99.90;;;;;;4977239;28;20201;-67
2024/01/12 06:26:54;;;;;;;44.13;27.60;;;1.00;99.90;;;;;;4949926;28;20213;-67
2024/01/12 06:29:21;;;;;;;47.40;26.13;;;1.10;99.90;;;;;;4979867;28;20201;-67
2024/01/12 06:31:48;;;;;;;54.90;27.77;;;0.90;99.90;;;;;;4983452;28;20661;-67
2024/01/12 06:34:15;;;;;;;50.57;26.10;;;0.90;99.90;;;;;;4941662;28;20229;-67
2024/01/12 06:36:43;;;;;;;49.83;29.23;;;1.00;99.90;;;;;;4954947;28;20191;-67
2024/01/12 06:39:10;;;;;;;42.90;26.93;;;1.10;99.90;;;;;;4966089;28;20218;-67
2024/01/12 06:41:46;;;;;;;60.30;29.53;;;1.10;99.90;;;;;;4966667;28;20226;-66
2024/01/12 06:44:13;;;;;;;44.60;27.53;;;1.20;99.90;;;;;;4975111;28;20273;-66
2024/01/12 06:46:42;;;;;;;48.37;26.90;;;1.20;99.90;;;;;;4947097;28;20190;-67
2024/01/12 06:49:11;;;;;;;47.07;25.93;;;1.10;99.90;;;;;;4964452;28;20627;-67
2024/01/12 06:51:38;;;;;;;50.53;27.50;;;1.20;99.90;;;;;;4979026;28;20270;-67
2024/01/12 06:54:05;;;;;;;49.70;28.40;;;1.20;99.90;;;;;;4969068;28;20203;-66
2024/01/12 06:56:37;;;;;;;41.97;26.30;;;1.30;99.90;;;;;;4986625;28;20189;-65
2024/01/12 06:59:05;;;;;;;49.53;27.67;;;1.30;99.90;;;;;;4962447;28;20198;-67
2024/01/12 07:01:32;;;;;;;47.10;28.17;;;1.30;99.90;;;;;;4955209;28;20207;-67
2024/01/12 07:03:59;;;;;;;51.73;27.93;;;1.30;99.90;;;;;;4958590;28;20209;-66
2024/01/12 07:06:26;;;;;;;40.50;26.37;;;1.20;99.90;;;;;;4975317;28;20216;-66
2024/01/12 07:08:54;;;;;;;54.93;28.40;;;1.30;99.90;;;;;;4959633;28;20194;-66
2024/01/12 07:11:23;;;;;;;35.67;26.00;;;1.20;99.90;;;;;;4952342;28;20224;-66
2024/01/12 07:13:50;;;;;;;50.03;28.03;;;1.20;99.90;;;;;;4958540;28;20206;-67
2024/01/12 07:16:17;;;;;;;46.53;27.70;;;1.30;99.90;;;;;;4967124;28;20194;-65
2024/01/12 07:18:44;;;;;;;46.20;26.33;;;1.30;99.90;;;;;;4950565;28;20201;-67
2024/01/12 07:21:11;;;;;;;43.53;26.37;;;1.30;99.90;;;;;;4948667;28;20570;-61
2024/01/12 07:23:38;;;;;;;41.07;25.97;;;1.30;99.90;;;;;;4975425;28;20214;-60
2024/01/12 07:26:05;;;;;;;44.27;27.20;;;1.30;99.90;;;;;;4961510;28;20225;-60
2024/01/12 07:28:32;;;;;;;43.00;26.03;;;1.30;99.90;;;;;;4952090;28;20321;-61
2024/01/12 07:30:59;;;;;;;39.40;25.40;;;1.30;99.90;;;;;;4972007;28;20190;-59
2024/01/12 07:33:26;;;;;;;47.70;27.20;;;1.30;99.90;;;;;;4953287;28;20221;-61
2024/01/12 07:35:54;;;;;;;39.67;25.43;;;1.30;99.90;;;;;;4955446;28;20203;-61
2024/01/12 07:38:21;;;;;;;44.00;26.20;;;1.30;99.90;;;;;;4975136;28;20233;-60
2024/01/12 07:40:48;;;;;;;42.30;24.97;;;1.40;99.90;;;;;;4951853;28;20237;-61
2024/01/12 07:43:15;;;;;;;38.63;24.23;;;1.30;99.90;;;;;;4958209;28;20229;-61
2024/01/12 07:45:42;;;;;;;28.80;23.07;;;1.40;99.90;;;;;;4959032;28;20264;-61
2024/01/12 07:48:09;;;;;;;23.87;19.37;;;1.30;99.90;;;;;;4980250;28;20293;-61
2024/01/12 07:50:37;;;;;;;28.20;18.37;;;1.30;99.90;;;;;;4953806;28;20566;-60
2024/01/12 07:53:04;;;;;;;32.50;20.37;;;1.30;99.90;;;;;;4970880;28;20199;-60
2024/01/12 07:55:31;;;;;;;25.93;20.40;;;1.30;99.90;;;;;;4956449;28;20201;-60
2024/01/12 07:57:58;;;;;;;25.93;19.70;;;1.40;99.90;;;;;;4971873;28;20847;-62
2024/01/12 08:00:25;;;;;;;26.87;19.80;;;1.30;99.90;;;;;;4982875;28;20662;-60
2024/01/12 08:02:52;;;;;;;23.40;19.23;;;1.30;99.90;;;;;;4963492;28;20243;-61
2024/01/12 08:05:22;;;;;;;25.60;19.93;;;1.40;99.90;;;;;;4966660;28;20489;-60
2024/01/12 08:07:50;;;;;;;28.37;19.93;;;1.30;99.90;;;;;;4972919;28;20540;-60
2024/01/12 08:10:18;;;;;;;34.43;19.93;;;1.40;99.90;;;;;;4962529;28;20225;-60
2024/01/12 08:12:45;;;;;;;29.87;19.23;;;1.40;99.90;;;;;;4965978;28;20218;-61
2024/01/12 08:15:12;;;;;;;26.73;19.97;;;1.40;99.90;;;;;;4967837;28;20533;-60
2024/01/12 08:17:40;;;;;;;21.93;19.40;;;1.40;99.90;;;;;;4975805;28;20194;-62
2024/01/12 08:20:08;;;;;;;21.60;19.30;;;1.40;99.90;;;;;;4982129;28;20206;-60
2024/01/12 08:22:35;;;;;;;22.97;19.47;;;1.40;99.90;;;;;;4983431;28;20304;-61
2024/01/12 08:25:01;;;;;;;22.80;20.17;;;1.40;99.90;;;;;;4978426;28;20623;-60
2024/01/12 08:27:29;;;;;;;25.93;19.70;;;1.30;99.90;;;;;;4933774;29;20245;-61
2024/01/12 08:29:55;;;;;;;29.43;21.20;;;1.40;99.90;;;;;;4969630;28;20209;-67
2024/01/12 08:32:23;;;;;;;23.87;18.63;;;1.40;99.90;;;;;;4944229;28;20215;-66
2024/01/12 08:34:50;;;;;;;26.57;18.63;;;1.40;99.90;;;;;;4977095;28;20202;-67
2024/01/12 08:37:17;;;;;;;24.77;18.63;;;1.40;99.90;;;;;;4967555;28;20303;-66
2024/01/12 08:39:44;;;;;;;21.47;18.20;;;1.40;99.90;;;;;;4967954;28;20201;-66
2024/01/12 08:42:11;;;;;;;28.97;20.27;;;1.40;99.90;;;;;;4987281;28;20749;-67
2024/01/12 08:44:39;;;;;;;29.87;20.60;;;1.40;99.90;;;;;;4952962;28;20814;-67
2024/01/12 08:47:06;;;;;;;21.63;18.30;;;1.50;99.90;;;;;;4937075;28;20406;-68
2024/01/12 08:49:33;;;;;;;30.63;21.77;;;1.50;99.90;;;;;;4979803;28;20670;-67
2024/01/12 08:52:00;;;;;;;26.23;19.97;;;1.50;99.90;;;;;;4954179;28;20550;-67
2024/01/12 08:54:27;;;;;;;28.47;20.17;;;1.50;99.90;;;;;;4947983;28;20203;-68
2024/01/12 08:56:54;;;;;;;25.87;18.50;;;1.50;99.90;;;;;;4966275;28;20206;-68
2024/01/12 08:59:22;;;;;;;20.73;18.57;;;1.50;99.90;;;;;;4959569;28;20210;-68
2024/01/12 09:01:49;;;;;;;22.13;19.67;;;1.50;99.90;;;;;;4960058;28;20312;-67
2024/01/12 09:04:16;;;;;;;21.70;19.40;;;1.50;99.90;;;;;;4974381;28;20567;-67
2024/01/12 09:06:44;;;;;;;35.53;21.90;;;1.50;99.90;;;;;;4959493;28;20234;-67
2024/01/12 09:09:11;;;;;;;26.87;19.50;;;1.60;99.90;;;;;;4968531;28;20205;-67
2024/01/12 09:11:38;;;;;;;21.73;19.13;;;1.50;99.90;;;;;;4969763;28;20211;-67
2024/01/12 09:14:05;;;;;;;22.80;18.83;;;1.50;99.90;;;;;;4973412;28;20609;-67
2024/01/12 09:16:36;;;;;;;26.43;19.23;;;1.60;99.90;;;;;;4982918;28;20597;-68
2024/01/12 09:19:03;;;;;;;21.67;19.37;;;1.60;99.90;;;;;;4978744;28;20619;-66
2024/01/12 09:21:30;;;;;;;24.17;19.37;;;1.60;99.90;;;;;;4968071;28;20856;-67
2024/01/12 09:23:57;;;;;;;22.20;19.37;;;1.60;99.90;;;;;;4975068;28;20206;-67
2024/01/12 09:26:25;;;;;;;30.47;20.20;;;1.60;99.90;;;;;;4958080;28;20206;-65
2024/01/12 09:28:52;;;;;;;23.73;19.97;;;1.60;99.90;;;;;;4974613;28;20217;-67
2024/01/12 09:31:19;;;;;;;20.90;18.67;;;1.60;99.90;;;;;;4960916;28;20206;-66
2024/01/12 09:33:46;;;;;;;26.20;20.63;;;1.70;99.90;;;;;;4952010;28;20214;-67
2024/01/12 09:36:13;;;;;;;21.73;19.33;;;1.70;99.90;;;;;;4949754;28;20296;-67
2024/01/12 09:38:41;;;;;;;25.40;19.80;;;1.70;99.90;;;;;;4974260;28;20203;-67
2024/01/12 09:41:12;;;;;;;22.93;19.33;;;1.70;99.90;;;;;;4987573;28;20666;-67
2024/01/12 09:43:40;;;;;;;23.77;19.47;;;1.70;99.90;;;;;;4967983;28;20228;-67
2024/01/12 09:46:09;;;;;;;26.63;19.53;;;1.70;99.90;;;;;;4981586;28;20285;-67
2024/01/12 09:48:37;;;;;;;28.73;20.80;;;1.70;99.90;;;;;;4973649;28;20197;-66
2024/01/12 09:51:06;;;;;;;20.97;18.73;;;1.70;99.90;;;;;;4954907;28;20198;-67
2024/01/12 09:53:35;;;;;;;23.00;19.43;;;1.70;99.90;;;;;;4973791;28;20400;-67
2024/01/12 09:56:03;;;;;;;21.00;18.70;;;1.70;99.90;;;;;;4977285;28;20190;-67
2024/01/12 09:58:40;;;;;;;22.60;19.17;;;1.70;99.90;;;;;;4957999;28;20194;-66
2024/01/12 10:01:11;;;;;;;24.13;18.70;;;1.70;99.90;;;;;;4963037;28;20212;-67
2024/01/12 10:03:41;;;;;;;20.63;17.77;;;1.60;99.90;;;;;;4952804;28;20206;-64
2024/01/12 10:06:08;;;;;;;19.77;17.67;;;1.60;99.90;;;;;;4984954;28;20286;-67
2024/01/12 10:08:39;;;;;;;20.93;18.33;;;1.70;99.90;;;;;;4953974;28;20194;-66
2024/01/12 10:11:07;;;;;;;22.63;18.77;;;1.70;99.90;;;;;;4961021;28;20234;-67
2024/01/12 10:13:34;;;;;;;22.43;18.20;;;1.60;99.90;;;;;;4976810;28;20221;-67
2024/01/12 10:16:01;;;;;;;20.60;18.40;;;1.70;99.90;;;;;;4975093;28;20941;-67
2024/01/12 10:18:28;;;;;;;19.77;17.67;;;1.70;99.90;;;;;;4980538;28;20301;-67
2024/01/12 10:21:00;;;;;;;22.13;18.43;;;1.70;99.90;;;;;;4969270;28;20202;-67
2024/01/12 10:23:27;;;;;;;20.13;18.00;;;1.60;99.90;;;;;;4975338;28;20205;-68
2024/01/12 10:25:58;;;;;;;24.13;18.97;;;1.70;99.90;;;;;;4957508;28;20289;-68
2024/01/12 10:28:29;;;;;;;29.00;19.20;;;1.70;99.90;;;;;;4955187;28;20186;-67
2024/01/12 10:30:56;;;;;;;23.67;18.70;;;1.70;99.90;;;;;;4959482;28;20209;-67
2024/01/12 10:33:24;;;;;;;24.50;17.57;;;1.60;99.90;;;;;;4970672;28;20281;-68
2024/01/12 10:36:10;;;;;;;23.27;17.77;;;1.70;99.90;;;;;;4956332;28;20230;-67
2024/01/12 10:38:39;;;;;;;24.77;18.60;;;1.70;99.90;;;;;;4968711;28;20202;-67
2024/01/12 10:41:07;;;;;;;26.50;20.53;;;1.70;99.90;;;;;;4952285;28;20231;-68
2024/01/12 10:43:37;;;;;;;21.60;18.27;;;1.70;99.90;;;;;;4933981;29;20297;-68
2024/01/12 10:46:40;;;;;;;20.87;17.73;;;1.60;99.90;;;;;;4948955;28;20195;-67
2024/01/12 10:49:10;;;;;;;24.57;18.80;;;1.70;99.90;;;;;;4930892;28;20293;-68
2024/01/12 10:51:43;;;;;;;21.93;18.40;;;1.80;99.90;;;;;;4957619;28;20222;-65
2024/01/12 10:54:17;;;;;;;21.60;17.90;;;1.80;99.90;;;;;;4953482;28;20195;-66
2024/01/12 10:56:44;;;;;;;20.60;16.90;;;1.80;99.90;;;;;;4958430;28;20198;-67
2024/01/12 10:59:12;;;;;;;25.50;20.30;;;1.80;99.90;;;;;;4952917;28;20889;-67
2024/01/12 11:01:40;;;;;;;22.13;19.33;;;1.80;99.90;;;;;;4958080;28;20191;-66
2024/01/12 11:04:08;;;;;;;25.07;18.93;;;1.80;99.90;;;;;;4957143;28;20215;-68
2024/01/12 11:06:36;;;;;;;30.57;21.70;;;1.80;99.90;;;;;;4936912;29;20209;-67
2024/01/12 11:09:07;;;;;;;31.27;22.23;;;1.90;99.90;;;;;;4934584;29;20299;-68
2024/01/12 11:11:43;;;;;;;22.77;20.17;;;1.90;99.90;;;;;;4958930;28;20214;-67
2024/01/12 11:14:11;;;;;;;31.63;20.30;;;1.80;99.90;;;;;;4960823;28;20194;-67
2024/01/12 11:16:38;;;;;;;25.50;20.67;;;1.70;99.90;;;;;;4959325;28;20671;-68
2024/01/12 11:19:14;;;;;;;23.10;20.00;;;1.80;99.90;;;;;;4956927;28;20195;-67
2024/01/12 11:21:42;;;;;;;27.47;20.17;;;1.70;99.90;;;;;;4958304;28;20257;-66
2024/01/12 11:24:13;;;;;;;30.47;20.37;;;1.80;99.90;;;;;;4939923;28;20587;-67
2024/01/12 11:26:41;;;;;;;26.53;18.43;;;1.60;99.90;;;;;;4949888;28;20254;-67
2024/01/12 11:29:14;;;;;;;24.10;17.90;;;1.60;99.90;;;;;;4949934;28;20202;-67
2024/01/12 11:31:54;;;;;;;22.73;19.87;;;1.50;99.90;;;;;;4952117;28;20660;-67
2024/01/12 11:34:21;;;;;;;29.00;18.67;;;1.50;99.90;;;;;;4960858;28;20218;-67
2024/01/12 11:36:58;;;;;;;27.20;19.43;;;1.50;99.90;;;;;;4958145;28;20566;-67
2024/01/12 11:39:25;;;;;;;29.07;19.27;;;1.50;99.90;;;;;;4952391;28;20293;-67
2024/01/12 11:41:56;;;;;;;31.33;20.80;;;1.60;99.90;;;;;;4969115;28;20424;-67
2024/01/12 11:44:26;;;;;;;30.27;20.07;;;1.70;99.90;;;;;;4973058;28;20689;-67
2024/01/12 11:46:53;;;;;;;27.87;21.17;;;1.60;99.90;;;;;;4978415;28;20211;-67
2024/01/12 11:49:20;;;;;;;31.53;18.90;;;1.70;99.90;;;;;;4983452;28;20194;-68
2024/01/12 11:51:47;;;;;;;24.63;17.80;;;1.80;99.90;;;;;;4979156;28;20202;-68
2024/01/12 11:54:14;;;;;;;40.03;19.93;;;1.70;99.90;;;;;;4952367;28;20198;-68
2024/01/12 11:56:42;;;;;;;25.70;18.80;;;1.60;99.90;;;;;;4972636;28;20734;-67
2024/01/12 11:59:09;;;;;;;21.83;18.03;;;1.80;99.90;;;;;;4970679;28;20293;-66
2024/01/12 12:01:36;;;;;;;24.30;18.93;;;1.80;99.90;;;;;;4975082;28;21368;-61
2024/01/12 12:04:03;;;;;;;29.00;18.73;;;1.80;99.90;;;;;;4950984;28;20590;-60
2024/01/12 12:06:30;;;;;;;28.47;19.60;;;1.80;99.90;;;;;;4953553;28;20252;-61
2024/01/12 12:08:58;;;;;;;35.43;20.13;;;1.80;99.90;;;;;;4969182;28;20586;-60
2024/01/12 12:11:26;;;;;;;30.23;20.07;;;1.70;99.90;;;;;;4980808;28;20304;-60
2024/01/12 12:13:53;;;;;;;28.57;19.03;;;1.90;99.90;;;;;;4975871;28;20202;-62
2024/01/12 12:16:20;;;;;;;41.17;19.73;;;2.00;99.90;;;;;;4956610;28;20194;-60
2024/01/12 12:18:47;;;;;;;30.10;19.97;;;1.90;99.90;;;;;;4971092;28;20253;-60
2024/01/12 12:21:15;;;;;;;32.30;21.17;;;2.00;99.90;;;;;;4974894;28;20210;-60
2024/01/12 12:23:43;;;;;;;35.63;21.87;;;2.00;99.90;;;;;;4969602;28;20261;-60
2024/01/12 12:26:11;;;;;;;27.73;20.90;;;2.00;99.90;;;;;;4963839;28;20225;-60
2024/01/12 12:28:37;;;;;;;33.23;20.37;;;2.10;99.90;;;;;;4979449;28;20782;-60
2024/01/12 12:31:08;;;;;;;31.80;21.57;;;2.10;99.90;;;;;;4981672;28;20618;-59
2024/01/12 12:33:35;;;;;;;35.23;19.90;;;2.10;99.90;;;;;;4975736;28;20201;-60
2024/01/12 12:36:08;;;;;;;33.07;20.53;;;2.10;99.90;;;;;;4987493;28;20198;-60
2024/01/12 12:38:37;;;;;;;39.07;22.03;;;2.10;99.90;;;;;;4971124;28;20202;-60
2024/01/12 12:41:09;;;;;;;30.57;20.07;;;2.00;99.90;;;;;;4974315;28;20237;-61
2024/01/12 12:43:37;;;;;;;35.00;21.83;;;2.00;99.90;;;;;;4971015;28;20190;-60